KCAG

Details ICAO KCAG
Name CRAIG MOFFAT
Region United States
Timezone America/Denver (UTC-6.0)
Plans Departing 0
Arriving 2
Stats Elevation 6,193 ft / 1,888 m (AMSL)
Location 40.495210° -107.521661°
Runways 1
Magnetic Variation 9.499° E
Sunrise 2018-05-27 11:45:47 UTC / 2018-05-27 05:45:47 Local
Sunset 2018-05-28 02:31:39 UTC / 2018-05-27 20:31:39 Local
Advertisement - Login to hide

Runways

ID Width Length Bearing (true) Bearing (mag) Surface Threshold Offset Overrun Length
07 100 ft / 30 m 5,592 ft / 1,705 m 82.94° 73.44° Asphalt 0 ft / 0 m 0 ft / 0 m
25 100 ft / 30 m 5,592 ft / 1,705 m 262.96° 253.46° Asphalt 0 ft / 0 m 0 ft / 0 m

Map

Weather


0- 5 10 15 20 25 30 35+ Temperature / ° C

Clouds and Precipitation
Forecast for 2018-05-27 06:00 UTC. Updated 3 hours ago

Ground ~20,000 ft ~40,000 ft Winds

METAR

KCAG 270753Z AUTO 16009KT 10SM CLR 14/02 A2989 RMK AO2 SLP035 T01440017

TAF

Not found

Frequencies

Recorded 135.42 MHz ASOS
Unicom 122.80 MHz CTAF/UNICOM
Warning: Do not use this data for real-world aviation or navigation. No guarantee of current accuracy is given.